Time;durP1;ratioP1;P1;durP2;ratioP2;P2;SDS_P1;SDS_P2;PMS_P1;PMS_P2;Temp;Humidity;BMP_temperature;BMP_pressure;BME280_temperature;BME280_humidity;BME280_pressure;Samples;Min_cycle;Max_cycle;Signal;HPM_P1;HPM_P2
2023/10/06 00:10:46;;;;;;;8.77;7.30;;;;;;;24.88;52.42;97182.13;6127015;23;20384;-28
2023/10/06 00:23:52;;;;;;;7.50;6.32;;;;;;;24.89;52.86;97194.75;6126267;23;20335;-28
2023/10/06 00:26:18;;;;;;;8.75;6.63;;;;;;;24.90;52.77;97198.28;6126791;23;20020;-27
2023/10/06 00:28:46;;;;;;;10.50;6.50;;;;;;;25.08;52.47;97200.59;6126751;23;20085;-27
2023/10/06 00:54:46;;;;;;;8.02;5.20;;;;;;;25.13;51.94;97191.50;6126599;23;20455;-28
2023/10/06 01:10:40;;;;;;;8.50;5.95;;;;;;;24.99;52.58;97173.84;6126606;23;20091;-28
2023/10/06 01:26:32;;;;;;;9.48;6.28;;;;;;;25.10;52.11;97150.88;6125230;23;20081;-28
2023/10/06 01:39:48;;;;;;;10.70;6.32;;;;;;;24.84;52.86;97151.13;6126196;23;20013;-28
2023/10/06 01:55:41;;;;;;;9.65;6.43;;;;;;;24.79;52.58;97142.81;6126097;23;20020;-27
2023/10/06 02:11:34;;;;;;;9.75;7.03;;;;;;;24.77;53.01;97142.53;6126019;23;20024;-28
2023/10/06 02:42:19;;;;;;;13.68;6.97;;;;;;;24.86;53.09;97136.75;6125758;23;20020;-28
2023/10/06 02:55:36;;;;;;;10.65;5.95;;;;;;;24.83;52.64;97130.19;6125802;23;20089;-28
2023/10/06 03:28:25;;;;;;;7.00;5.65;;;;;;;24.74;52.08;97135.22;6126917;23;20096;-27
2023/10/06 03:30:52;;;;;;;8.88;6.07;;;;;;;24.84;51.12;97133.72;6127870;23;20076;-27
2023/10/06 03:56:53;;;;;;;9.10;6.25;;;;;;;24.63;51.21;97120.09;6126868;23;20021;-27
2023/10/06 04:13:08;;;;;;;10.02;7.53;;;;;;;24.68;50.67;97124.91;6126782;23;20025;-28
2023/10/06 04:43:17;;;;;;;11.80;8.27;;;;;;;24.71;50.05;97131.47;6126628;23;20447;-27
2023/10/06 04:59:11;;;;;;;10.75;8.82;;;;;;;24.42;49.94;97137.47;6126386;23;20072;-28
2023/10/06 05:12:16;;;;;;;12.18;8.55;;;;;;;24.62;49.36;97153.88;6126626;23;20097;-27
2023/10/06 05:28:10;;;;;;;11.80;8.98;;;;;;;24.47;49.64;97151.34;6124920;23;20048;-28
2023/10/06 05:44:05;;;;;;;11.35;9.70;;;;;;;24.46;49.90;97154.63;6126087;23;20392;-28
2023/10/06 06:13:24;;;;;;;14.38;9.27;;;;;;;24.44;50.33;97177.31;6126374;23;20021;-28
2023/10/06 06:29:19;;;;;;;11.13;9.93;;;;;;;24.77;49.93;97178.59;6124076;23;20084;-28
2023/10/06 06:45:13;;;;;;;12.07;9.10;;;;;;;24.73;50.69;97197.53;6125780;23;20017;-28
2023/10/06 06:58:21;;;;;;;13.98;8.82;;;;;;;24.74;51.00;97207.34;6126078;23;20012;-28
2023/10/06 07:14:14;;;;;;;12.32;8.10;;;;;;;24.84;51.02;97236.38;6125340;23;20061;-28
2023/10/06 07:30:10;;;;;;;13.05;8.85;;;;;;;24.69;51.54;97242.91;6123959;23;20487;-28
2023/10/06 07:59:30;;;;;;;12.88;8.10;;;;;;;25.04;50.99;97258.38;6127407;23;20057;-32
2023/10/06 08:15:44;;;;;;;10.13;6.13;;;;;;;25.15;50.64;97275.03;6126858;23;20025;-29
2023/10/06 08:45:59;;;;;;;7.88;6.05;;;;;;;25.53;49.57;97269.97;6126429;23;20024;-28
2023/10/06 09:01:51;;;;;;;13.40;5.82;;;;;;;25.65;48.92;97282.63;6126313;23;20118;-28
2023/10/06 09:14:56;;;;;;;7.60;5.70;;;;;;;25.86;48.25;97283.09;6126372;23;20020;-28
2023/10/06 09:30:57;;;;;;;12.25;5.68;;;;;;;25.91;47.81;97277.53;6124779;23;20033;-28
2023/10/06 09:33:49;;;;;;;9.90;5.30;;;;;;;26.00;47.43;97277.25;6126223;23;20014;-27
2023/10/06 09:46:22;;;;;;;12.55;5.97;;;;;;;25.98;46.90;97270.69;6126240;23;20016;-27
2023/10/06 10:02:20;;;;;;;7.00;5.10;;;;;;;26.16;46.37;97263.81;6125707;23;20345;-28
2023/10/06 10:15:40;;;;;;;10.55;5.20;;;;;;;26.34;46.00;97266.03;6126198;23;20069;-28
2023/10/06 10:18:20;;;;;;;9.95;5.60;;;;;;;26.40;45.57;97258.44;6125861;23;20005;-28
2023/10/06 10:30:53;;;;;;;12.35;5.57;;;;;;;26.30;45.41;97257.22;6124359;23;20032;-28
2023/10/06 10:46:52;;;;;;;7.93;5.80;;;;;;;26.32;45.49;97235.97;6096161;23;20016;-28
2023/10/06 11:03:00;;;;;;;7.80;5.35;;;;;;;26.41;44.99;97226.59;6096155;23;20114;-28
2023/10/06 11:16:26;;;;;;;9.00;4.95;;;;;;;26.30;43.42;97209.94;6096701;23;20017;-28
2023/10/06 12:05:11;;;;;;;7.35;5.38;;;;;;;26.55;42.79;97166.31;6097416;23;20344;-28
2023/10/06 12:18:33;;;;;;;9.15;5.30;;;;;;;26.44;41.97;97170.69;6097632;23;20021;-28
2023/10/06 12:34:27;;;;;;;7.35;5.50;;;;;;;26.53;40.10;97155.72;6112365;23;20515;-28
2023/10/06 12:50:21;;;;;;;7.28;5.32;;;;;;;26.47;40.53;97143.84;6125003;23;20069;-28
2023/10/06 13:19:40;;;;;;;5.57;4.30;;;;;;;26.62;39.26;97116.44;6125183;23;20061;-28
2023/10/06 13:35:35;;;;;;;6.57;4.87;;;;;;;26.63;39.09;97111.63;6071028;23;1257279;-28
2023/10/06 13:51:26;;;;;;;7.40;5.40;;;;;;;26.59;39.04;97119.50;6126172;23;20020;-27
2023/10/06 14:04:41;;;;;;;8.68;5.38;;;;;;;26.47;39.24;97105.66;6125942;23;20158;-28
2023/10/06 14:20:33;;;;;;;6.07;4.88;;;;;;;26.55;38.02;97107.91;6125810;23;20016;-28
2023/10/06 14:36:28;;;;;;;10.60;4.35;;;;;;;26.88;37.60;97106.88;6124366;23;20029;-28
2023/10/06 15:05:48;;;;;;;9.65;5.55;;;;;;;26.61;38.07;97091.91;6127733;23;20013;-28
2023/10/06 15:08:14;;;;;;;9.05;4.70;;;;;;;26.67;37.58;97093.41;6127317;23;20006;-27
2023/10/06 15:20:49;;;;;;;6.25;4.63;;;;;;;26.76;37.04;97090.28;6127604;23;20105;-28
2023/10/06 15:30:04;;;;;;;8.88;5.20;;;;;;;26.98;37.91;97091.38;6127310;23;20013;-28
2023/10/06 15:32:30;;;;;;;6.97;5.47;;;;;;;26.80;38.19;97087.97;6127166;23;20004;-28
2023/10/06 15:34:56;;;;;;;7.43;4.95;;;;;;;26.96;37.55;97091.88;6127577;23;20062;-28
2023/10/06 15:37:21;;;;;;;6.22;4.70;;;;;;;27.02;37.32;97087.03;6127356;23;20038;-28
2023/10/06 15:39:47;;;;;;;5.47;4.38;;;;;;;26.77;37.55;97082.69;6127505;23;20060;-28
2023/10/06 15:42:13;;;;;;;9.15;4.68;;;;;;;27.01;37.32;97091.09;6101609;23;20415;-28
2023/10/06 15:44:38;;;;;;;7.30;4.75;;;;;;;27.04;37.17;97086.50;6127624;23;20005;-28
2023/10/06 15:47:07;;;;;;;11.00;5.28;;;;;;;26.81;37.57;97089.47;6127470;23;20378;-28
2023/10/06 15:49:32;;;;;;;7.32;4.88;;;;;;;26.77;38.84;97083.44;6127568;23;20006;-28
2023/10/06 15:51:58;;;;;;;7.40;5.55;;;;;;;26.81;39.16;97078.34;6101240;23;20006;-28
2023/10/06 15:54:25;;;;;;;9.25;6.40;;;;;;;26.84;39.57;97088.41;6127481;23;20010;-28
2023/10/06 15:56:51;;;;;;;10.23;5.90;;;;;;;26.94;40.13;97091.69;6127331;23;20009;-28
2023/10/06 15:59:20;;;;;;;10.18;6.63;;;;;;;26.89;41.07;97089.66;6127406;23;20012;-28
2023/10/06 16:01:47;;;;;;;9.88;7.10;;;;;;;26.78;41.85;97090.50;6127040;23;20372;-28
2023/10/06 16:04:13;;;;;;;10.82;7.40;;;;;;;26.75;41.75;97090.78;6127301;23;20010;-28
2023/10/06 16:06:41;;;;;;;11.10;7.43;;;;;;;26.79;43.18;97094.81;6127277;23;20012;-28
2023/10/06 16:09:09;;;;;;;11.45;7.57;;;;;;;26.77;43.62;97093.81;6127223;23;20459;-28
2023/10/06 16:11:36;;;;;;;14.05;7.80;;;;;;;26.88;43.39;97098.53;6127452;23;20006;-28
2023/10/06 16:14:04;;;;;;;11.50;7.70;;;;;;;26.69;44.66;97099.19;6127232;23;20064;-28
2023/10/06 16:16:30;;;;;;;9.90;7.70;;;;;;;26.82;43.28;97106.94;6127275;23;20337;-28
2023/10/06 16:18:56;;;;;;;11.52;7.90;;;;;;;26.76;44.85;97097.88;6127635;23;20005;-28
2023/10/06 16:21:22;;;;;;;11.18;7.70;;;;;;;26.67;44.62;97107.31;6126981;23;20006;-28
2023/10/06 16:23:49;;;;;;;14.90;8.55;;;;;;;26.76;44.79;97101.41;6127179;23;20002;-27
2023/10/06 16:26:15;;;;;;;10.85;8.13;;;;;;;26.68;45.35;97103.25;6127043;23;20061;-28
2023/10/06 16:28:41;;;;;;;10.80;8.60;;;;;;;26.78;45.13;97107.22;6127430;23;20298;-28
2023/10/06 16:31:08;;;;;;;14.80;8.20;;;;;;;26.65;46.25;97115.41;6127223;23;20052;-27
2023/10/06 16:33:38;;;;;;;9.43;7.95;;;;;;;26.64;47.12;97115.91;6126724;23;20080;-27
2023/10/06 16:36:06;;;;;;;11.30;8.73;;;;;;;26.72;46.54;97112.06;6126968;23;20018;-27
2023/10/06 16:38:32;;;;;;;11.38;9.32;;;;;;;26.57;47.08;97122.06;6126917;23;20005;-28
2023/10/06 16:41:00;;;;;;;10.85;8.52;;;;;;;26.55;48.12;97121.81;6126930;23;19998;-28
2023/10/06 16:43:28;;;;;;;13.38;8.63;;;;;;;26.65;47.54;97120.97;6127202;23;20002;-28
2023/10/06 16:46:01;;;;;;;13.05;8.50;;;;;;;26.51;47.27;97126.91;6127013;23;20013;-28
2023/10/06 16:48:26;;;;;;;13.88;9.82;;;;;;;26.64;48.23;97130.59;6100735;23;20020;-28
2023/10/06 16:50:53;;;;;;;30.17;18.40;;;;;;;26.55;48.71;97132.94;6126655;23;20029;-28
2023/10/06 16:53:19;;;;;;;26.65;16.27;;;;;;;26.45;48.36;97124.16;6125102;23;20336;-28
2023/10/06 16:55:44;;;;;;;22.83;14.70;;;;;;;26.48;48.64;97134.25;6126890;23;20001;-28
2023/10/06 16:58:10;;;;;;;20.60;13.05;;;;;;;26.45;49.22;97132.50;6126924;23;20002;-28
2023/10/06 17:00:36;;;;;;;16.90;12.18;;;;;;;26.57;48.42;97138.75;6126911;23;20010;-28
2023/10/06 17:03:02;;;;;;;20.95;12.30;;;;;;;26.44;48.61;97128.97;6126566;23;20009;-28
2023/10/06 17:05:28;;;;;;;22.60;12.40;;;;;;;26.40;49.00;97133.28;6126737;23;20002;-28
2023/10/06 17:07:54;;;;;;;15.88;11.75;;;;;;;26.40;49.03;97141.63;6126862;23;20025;-28
2023/10/06 17:10:22;;;;;;;17.77;10.65;;;;;;;26.45;49.09;97136.03;6100495;23;20013;-28
2023/10/06 17:12:48;;;;;;;16.10;10.30;;;;;;;26.18;49.30;97141.75;6126633;23;19998;-28
2023/10/06 17:15:14;;;;;;;14.60;10.20;;;;;;;26.24;49.46;97136.88;6126329;23;20060;-27
2023/10/06 17:17:42;;;;;;;12.43;10.18;;;;;;;26.44;48.88;97144.91;6126678;23;20368;-27
2023/10/06 17:20:14;;;;;;;13.50;10.70;;;;;;;26.40;48.64;97144.41;6100693;23;20305;-27
2023/10/06 17:22:46;;;;;;;18.80;10.85;;;;;;;26.24;49.37;97143.22;6126844;23;20029;-27
2023/10/06 17:25:16;;;;;;;18.90;10.82;;;;;;;26.33;48.72;97145.72;6126807;23;20010;-27
2023/10/06 17:27:45;;;;;;;24.02;11.55;;;;;;;26.24;49.26;97145.22;6127114;23;20072;-27
2023/10/06 17:30:15;;;;;;;19.00;11.38;;;;;;;26.27;49.04;97150.53;6126640;23;20413;-27
2023/10/06 17:32:42;;;;;;;20.70;10.52;;;;;;;26.29;49.00;97141.69;6126288;23;20069;-27
2023/10/06 17:35:08;;;;;;;17.40;10.98;;;;;;;26.35;49.03;97147.97;6126294;23;20002;-27
2023/10/06 17:37:33;;;;;;;21.15;11.35;;;;;;;26.30;49.06;97151.56;6126269;23;20012;-27
2023/10/06 17:40:00;;;;;;;15.95;10.70;;;;;;;26.30;48.79;97152.31;6126457;23;20076;-28
2023/10/06 17:42:26;;;;;;;16.00;10.25;;;;;;;26.30;49.00;97151.56;6126497;23;20029;-27
2023/10/06 17:44:51;;;;;;;15.63;10.45;;;;;;;26.22;49.20;97147.75;6126103;23;20009;-27
2023/10/06 17:47:17;;;;;;;19.67;10.43;;;;;;;26.36;49.29;97149.47;6126381;23;20005;-27
2023/10/06 17:49:43;;;;;;;17.67;11.00;;;;;;;26.33;49.06;97144.97;6126155;23;20006;-27
2023/10/06 17:52:09;;;;;;;16.30;10.18;;;;;;;26.28;49.52;97152.06;6126481;23;20081;-27
2023/10/06 17:54:34;;;;;;;17.13;10.85;;;;;;;26.17;49.39;97154.13;6126242;23;20052;-27
2023/10/06 17:57:00;;;;;;;16.65;10.00;;;;;;;26.18;49.68;97145.28;6126067;23;20424;-27
2023/10/06 17:59:26;;;;;;;14.30;10.60;;;;;;;26.16;49.86;97152.63;6126243;23;20551;-27
2023/10/06 18:01:52;;;;;;;14.50;10.35;;;;;;;26.31;49.10;97155.84;6126367;23;20520;-27
2023/10/06 18:04:17;;;;;;;18.65;11.25;;;;;;;26.19;49.63;97151.59;6126145;23;20033;-27
2023/10/06 18:06:43;;;;;;;16.48;9.80;;;;;;;26.12;50.06;97159.19;6126259;23;20012;-27
2023/10/06 18:09:09;;;;;;;18.90;10.70;;;;;;;26.17;49.64;97162.47;6125932;23;20002;-27
2023/10/06 18:11:35;;;;;;;16.60;9.88;;;;;;;26.22;49.77;97161.66;6126424;23;20006;-27
2023/10/06 18:14:01;;;;;;;14.95;10.80;;;;;;;26.25;49.70;97166.97;6126284;23;20006;-27
2023/10/06 18:16:27;;;;;;;16.25;10.65;;;;;;;26.10;50.20;97167.28;6125973;23;20016;-27
2023/10/06 18:18:52;;;;;;;14.68;9.75;;;;;;;26.06;49.84;97161.25;6126331;23;20006;-27
2023/10/06 18:21:18;;;;;;;13.95;10.13;;;;;;;26.12;49.79;97170.31;6126218;23;20002;-27
2023/10/06 18:23:44;;;;;;;12.63;9.73;;;;;;;25.97;50.65;97175.44;6126101;23;20001;-27
2023/10/06 18:26:12;;;;;;;13.25;10.38;;;;;;;26.05;50.01;97175.66;6100290;23;20010;-27
2023/10/06 18:28:38;;;;;;;21.88;10.85;;;;;;;26.10;50.44;97172.84;6125984;23;20009;-27
2023/10/06 18:31:03;;;;;;;14.88;9.73;;;;;;;26.03;50.46;97178.94;6125909;23;20313;-27
2023/10/06 18:33:29;;;;;;;13.05;9.88;;;;;;;26.03;50.64;97173.41;6125824;23;20324;-27
2023/10/06 18:35:54;;;;;;;13.07;10.18;;;;;;;26.20;50.17;97178.88;6105822;23;20025;-27
2023/10/06 18:38:20;;;;;;;15.75;9.48;;;;;;;26.01;50.43;97187.03;6126046;23;20010;-27
2023/10/06 18:40:55;;;;;;;10.88;9.50;;;;;;;26.11;50.50;97179.91;6125975;23;20025;-27
2023/10/06 18:43:24;;;;;;;12.50;10.50;;;;;;;25.93;50.37;97182.53;6126221;23;19998;-27
2023/10/06 18:45:54;;;;;;;16.73;10.10;;;;;;;26.13;50.33;97185.72;6125923;23;20053;-27
2023/10/06 18:48:21;;;;;;;15.18;9.88;;;;;;;25.95;50.69;97188.34;6126275;23;20424;-27
2023/10/06 18:50:56;;;;;;;14.07;9.20;;;;;;;26.09;50.48;97188.00;6125891;23;20006;-27
2023/10/06 18:53:22;;;;;;;15.77;9.82;;;;;;;25.97;50.42;97197.66;6125841;23;20006;-27
2023/10/06 18:55:52;;;;;;;17.48;10.00;;;;;;;26.01;50.34;97195.38;6125778;23;20305;-27
2023/10/06 18:58:18;;;;;;;12.13;9.48;;;;;;;26.09;50.25;97193.56;6125876;23;20001;-27
2023/10/06 19:00:51;;;;;;;13.85;9.60;;;;;;;25.99;50.16;97191.59;6126253;23;20314;-27
2023/10/06 19:03:17;;;;;;;13.10;8.88;;;;;;;25.95;50.07;97188.34;6125771;23;20013;-27
2023/10/06 19:05:44;;;;;;;15.05;9.45;;;;;;;26.18;49.69;97189.00;6124532;23;20013;-27
2023/10/06 19:08:11;;;;;;;13.55;9.65;;;;;;;26.06;50.30;97194.63;6125675;23;20006;-27
2023/10/06 19:10:40;;;;;;;11.20;8.85;;;;;;;26.04;50.58;97194.38;6126019;23;20010;-27
2023/10/06 19:13:05;;;;;;;12.88;9.25;;;;;;;25.92;50.79;97190.13;6126205;23;20006;-27
2023/10/06 19:15:34;;;;;;;13.35;9.55;;;;;;;26.08;50.32;97189.31;6126004;23;20036;-26
2023/10/06 19:17:59;;;;;;;14.55;10.38;;;;;;;26.23;49.57;97193.75;6125961;23;20005;-27
2023/10/06 19:20:25;;;;;;;12.80;9.85;;;;;;;26.03;49.92;97195.63;6125831;23;20013;-27
2023/10/06 19:22:51;;;;;;;13.27;10.20;;;;;;;25.97;50.40;97200.44;6125883;23;20025;-27
2023/10/06 19:25:18;;;;;;;15.13;9.48;;;;;;;26.10;50.00;97199.88;6125820;23;20029;-27
2023/10/06 19:27:44;;;;;;;13.98;8.77;;;;;;;26.08;49.48;97189.31;6126042;23;20025;-27
2023/10/06 19:30:10;;;;;;;11.32;9.32;;;;;;;26.11;49.65;97195.84;6126018;23;20364;-27
2023/10/06 19:32:36;;;;;;;16.33;9.52;;;;;;;25.97;49.01;97196.91;6124296;23;19998;-27
2023/10/06 19:35:07;;;;;;;14.38;8.57;;;;;;;25.94;48.71;97198.72;6125776;23;20001;-27
2023/10/06 19:37:34;;;;;;;13.30;8.40;;;;;;;26.05;47.75;97192.34;6126935;23;20045;-27
2023/10/06 19:40:07;;;;;;;12.05;8.30;;;;;;;26.00;47.66;97191.09;6127506;23;20381;-27
2023/10/06 19:42:33;;;;;;;11.77;8.00;;;;;;;25.95;47.45;97193.91;6101500;23;20006;-26
2023/10/06 19:44:59;;;;;;;11.20;7.85;;;;;;;26.00;47.05;97207.75;6127679;23;20045;-27
2023/10/06 19:47:26;;;;;;;13.75;8.20;;;;;;;26.03;46.60;97197.66;6127647;23;20054;-27
2023/10/06 19:49:53;;;;;;;10.05;7.32;;;;;;;26.10;46.39;97200.66;6127257;23;20012;-27
2023/10/06 19:52:22;;;;;;;10.48;7.88;;;;;;;26.05;46.64;97204.22;6127495;23;19998;-27
2023/10/06 19:54:50;;;;;;;10.75;8.05;;;;;;;26.00;47.26;97207.75;6127368;23;20002;-27
2023/10/06 19:57:16;;;;;;;12.43;8.27;;;;;;;25.81;48.06;97206.84;6127372;23;20012;-27
2023/10/06 19:59:43;;;;;;;13.00;9.20;;;;;;;25.83;48.29;97200.78;6127525;23;20013;-27
2023/10/06 20:02:09;;;;;;;16.00;9.10;;;;;;;25.86;48.64;97206.03;6127097;23;20289;-27
2023/10/06 20:04:42;;;;;;;12.85;9.95;;;;;;;25.93;48.92;97202.75;6127754;23;20017;-27
2023/10/06 20:07:08;;;;;;;11.38;8.70;;;;;;;25.91;48.89;97213.63;6127161;23;20013;-27
2023/10/06 20:09:35;;;;;;;12.77;9.00;;;;;;;25.94;48.74;97204.25;6127421;23;20028;-27
2023/10/06 20:12:02;;;;;;;11.77;8.98;;;;;;;26.05;47.97;97206.25;6127266;23;19998;-27
2023/10/06 20:14:28;;;;;;;13.40;8.77;;;;;;;25.82;48.57;97194.44;6127369;23;20024;-27
2023/10/06 20:16:54;;;;;;;12.50;8.20;;;;;;;25.95;48.49;97191.88;6127269;23;20009;-27
2023/10/06 20:19:20;;;;;;;11.00;7.80;;;;;;;26.01;47.88;97191.84;6127329;23;20006;-27
2023/10/06 20:21:47;;;;;;;10.88;7.38;;;;;;;25.97;46.71;97192.09;6127243;23;20008;-27
2023/10/06 20:24:12;;;;;;;10.82;7.15;;;;;;;26.04;46.20;97196.38;6126954;23;20002;-27
2023/10/06 20:26:41;;;;;;;8.95;7.03;;;;;;;25.97;45.30;97196.91;6127168;23;20049;-27
2023/10/06 20:29:10;;;;;;;9.70;6.38;;;;;;;25.88;45.20;97199.97;6101368;23;20372;-27
2023/10/06 20:31:38;;;;;;;9.57;6.93;;;;;;;26.15;44.65;97198.38;6127054;23;20013;-27
2023/10/06 20:34:05;;;;;;;8.25;6.28;;;;;;;25.86;44.65;97186.59;6127291;23;20078;-27
2023/10/06 20:36:31;;;;;;;9.05;6.82;;;;;;;25.92;43.86;97197.69;6126724;23;20436;-27
2023/10/06 20:38:56;;;;;;;12.68;6.63;;;;;;;25.82;43.99;97193.69;6127097;23;20012;-26
2023/10/06 20:41:23;;;;;;;8.90;6.32;;;;;;;26.06;43.69;97193.84;6127041;23;20005;-27
2023/10/06 20:43:48;;;;;;;12.07;6.53;;;;;;;25.85;43.84;97190.63;6126715;23;20077;-27
2023/10/06 20:46:14;;;;;;;8.32;6.00;;;;;;;25.79;44.10;97205.81;6127023;23;20085;-27
2023/10/06 20:48:39;;;;;;;7.78;5.95;;;;;;;25.71;44.01;97197.28;6126425;23;20080;-27
2023/10/06 20:51:05;;;;;;;7.50;5.82;;;;;;;26.01;43.48;97209.28;6100967;23;20018;-27
2023/10/06 20:53:33;;;;;;;12.57;6.63;;;;;;;25.96;43.46;97206.53;6126868;23;20333;-27
2023/10/06 20:56:03;;;;;;;9.43;6.13;;;;;;;25.73;43.73;97203.03;6126722;23;20428;-27
2023/10/06 20:58:29;;;;;;;7.95;5.55;;;;;;;25.82;43.70;97205.56;6126937;23;20333;-27
2023/10/06 21:00:55;;;;;;;8.48;6.20;;;;;;;26.01;43.42;97212.06;6126602;23;20413;-27
2023/10/06 21:03:20;;;;;;;8.85;6.50;;;;;;;25.65;43.75;97216.72;6126655;23;20009;-27
2023/10/06 21:05:46;;;;;;;7.68;6.05;;;;;;;25.69;43.72;97216.47;6126746;23;20010;-27
2023/10/06 21:08:11;;;;;;;8.95;5.78;;;;;;;25.67;43.82;97214.19;6126735;23;20380;-27
2023/10/06 21:10:37;;;;;;;8.35;6.00;;;;;;;25.75;43.67;97222.75;6126915;23;20005;-27
2023/10/06 21:13:06;;;;;;;10.68;5.82;;;;;;;25.79;43.41;97223.25;6126677;23;20001;-27
2023/10/06 21:15:34;;;;;;;9.13;6.05;;;;;;;25.69;43.96;97224.78;6126849;23;20009;-27
2023/10/06 21:18:01;;;;;;;9.63;6.22;;;;;;;25.81;43.26;97229.06;6126875;23;20002;-27
2023/10/06 21:20:27;;;;;;;7.35;5.63;;;;;;;25.93;43.32;97233.31;6126434;23;20065;-27
2023/10/06 21:22:54;;;;;;;7.78;6.07;;;;;;;25.81;43.50;97231.84;6126645;23;20005;-27
2023/10/06 21:25:19;;;;;;;10.93;6.25;;;;;;;25.81;43.31;97223.50;6126623;23;20009;-27
2023/10/06 21:27:45;;;;;;;7.70;5.75;;;;;;;25.74;43.40;97229.56;6126719;23;20002;-27
2023/10/06 21:30:17;;;;;;;11.60;5.80;;;;;;;25.76;43.56;97225.03;6126606;23;20032;-27
2023/10/06 21:32:43;;;;;;;11.77;5.70;;;;;;;25.75;43.45;97228.31;6126939;23;20002;-27
2023/10/06 21:35:08;;;;;;;9.10;5.78;;;;;;;25.74;43.53;97241.44;6126280;23;20013;-27
2023/10/06 21:37:34;;;;;;;9.77;5.95;;;;;;;25.90;43.14;97231.56;6126296;23;20006;-27
2023/10/06 21:40:00;;;;;;;9.30;6.05;;;;;;;25.86;43.29;97236.59;6126556;23;20006;-27
2023/10/06 21:42:26;;;;;;;8.30;5.95;;;;;;;25.72;43.72;97235.63;6126479;23;20010;-27
2023/10/06 21:44:51;;;;;;;7.00;5.50;;;;;;;25.83;43.30;97237.66;6126506;23;20077;-27
2023/10/06 21:47:17;;;;;;;6.20;5.18;;;;;;;25.80;43.62;97244.22;6126422;23;20002;-27
2023/10/06 21:49:46;;;;;;;7.00;5.68;;;;;;;25.58;43.84;97233.13;6126229;23;20009;-27
2023/10/06 21:52:12;;;;;;;9.27;5.82;;;;;;;25.57;44.09;97237.16;6126296;23;20005;-27
2023/10/06 21:54:38;;;;;;;7.43;6.28;;;;;;;25.76;43.56;97238.91;6126614;23;20301;-27
2023/10/06 21:57:06;;;;;;;8.55;5.55;;;;;;;25.86;43.07;97241.41;6126181;23;20033;-27
2023/10/06 21:59:32;;;;;;;7.13;5.60;;;;;;;25.72;43.36;97232.09;6126098;23;20009;-27
2023/10/06 22:01:57;;;;;;;7.75;5.80;;;;;;;25.73;43.48;97236.38;6126420;23;19998;-27
2023/10/06 22:04:23;;;;;;;9.65;5.53;;;;;;;25.64;43.89;97233.88;6126361;23;20006;-27
2023/10/06 22:06:52;;;;;;;7.93;5.88;;;;;;;25.62;43.76;97239.19;6126236;23;20009;-27
2023/10/06 22:09:21;;;;;;;7.90;5.45;;;;;;;25.53;43.94;97236.66;6126186;23;20339;-27
2023/10/06 22:11:48;;;;;;;8.48;5.50;;;;;;;25.65;43.96;97238.19;6126403;23;20008;-27
2023/10/06 22:14:14;;;;;;;7.85;5.53;;;;;;;25.69;44.10;97238.69;6126210;23;20005;-27
2023/10/06 22:16:39;;;;;;;8.77;5.35;;;;;;;25.57;44.02;97245.50;6126174;23;20001;-27
2023/10/06 22:19:08;;;;;;;8.98;5.90;;;;;;;25.68;43.33;97240.72;6126444;23;20057;-27
2023/10/06 22:21:35;;;;;;;6.25;5.20;;;;;;;25.71;43.54;97242.47;6125936;23;20127;-27
2023/10/06 22:24:01;;;;;;;7.40;5.35;;;;;;;25.68;43.77;97249.03;6126388;23;20006;-27
2023/10/06 22:26:27;;;;;;;7.80;5.20;;;;;;;25.76;43.15;97243.72;6126077;23;20013;-27
2023/10/06 22:28:54;;;;;;;8.70;5.97;;;;;;;25.60;43.62;97231.31;6126148;23;20553;-27
2023/10/06 22:31:20;;;;;;;8.45;4.90;;;;;;;25.63;43.81;97240.69;6126045;23;20002;-27
2023/10/06 22:33:46;;;;;;;7.40;5.53;;;;;;;25.58;43.92;97230.34;6126006;23;20013;-27
2023/10/06 22:36:14;;;;;;;10.18;5.70;;;;;;;25.62;43.86;97230.84;6126001;23;20044;-27
2023/10/06 22:38:39;;;;;;;9.07;4.88;;;;;;;25.58;43.78;97230.34;6125872;23;20006;-27
2023/10/06 22:41:05;;;;;;;6.80;5.63;;;;;;;25.47;44.02;97238.69;6126146;23;20431;-27
2023/10/06 22:43:32;;;;;;;7.18;5.45;;;;;;;25.42;43.91;97229.84;6125823;23;20026;-27
2023/10/06 22:45:58;;;;;;;8.35;5.85;;;;;;;25.58;43.54;97233.13;6126037;23;20085;-27
2023/10/06 22:48:24;;;;;;;6.72;5.70;;;;;;;25.48;43.60;97234.63;6126070;23;20002;-27
2023/10/06 22:50:49;;;;;;;7.22;5.45;;;;;;;25.59;43.35;97234.63;6125913;23;20009;-27
2023/10/06 22:53:15;;;;;;;11.30;5.55;;;;;;;25.59;43.50;97229.81;6126073;23;20002;-27
2023/10/06 22:55:40;;;;;;;7.22;5.15;;;;;;;25.52;43.36;97230.34;6125870;23;20010;-27
2023/10/06 22:58:06;;;;;;;8.32;5.47;;;;;;;25.66;43.30;97229.34;6125788;23;20399;-27
2023/10/06 23:00:31;;;;;;;8.48;5.30;;;;;;;25.50;43.68;97224.53;6126219;23;20057;-27
2023/10/06 23:02:57;;;;;;;6.45;5.20;;;;;;;25.69;43.13;97233.13;6125640;23;20012;-27
2023/10/06 23:05:23;;;;;;;8.45;5.93;;;;;;;25.53;43.38;97225.53;6125850;23;20005;-27
2023/10/06 23:07:51;;;;;;;6.40;4.97;;;;;;;25.47;43.67;97233.88;6125947;23;20328;-27
2023/10/06 23:10:18;;;;;;;9.32;5.18;;;;;;;25.53;43.31;97231.84;6125674;23;20013;-27
2023/10/06 23:12:50;;;;;;;8.73;5.53;;;;;;;25.59;43.14;97234.63;6127372;23;20001;-27
2023/10/06 23:15:17;;;;;;;7.80;5.53;;;;;;;25.67;42.72;97233.63;6127895;23;20499;-27
2023/10/06 23:17:45;;;;;;;10.68;5.88;;;;;;;25.51;43.51;97233.63;6128060;23;20041;-27
2023/10/06 23:22:49;;;;;;;9.35;5.65;;;;;;;25.50;42.86;97237.66;6133051;23;20030;-27
2023/10/06 23:25:19;;;;;;;8.25;6.00;;;;;;;25.45;43.27;97227.34;6127650;23;20057;-27
2023/10/06 23:27:48;;;;;;;6.38;4.82;;;;;;;25.41;43.48;97231.13;6128208;23;20006;-27
2023/10/06 23:30:17;;;;;;;7.88;5.32;;;;;;;25.53;43.10;97237.41;6127775;23;20005;-27
2023/10/06 23:32:46;;;;;;;5.85;5.25;;;;;;;25.41;43.29;97233.91;6127639;23;20025;-27
2023/10/06 23:35:18;;;;;;;10.70;5.97;;;;;;;25.60;42.88;97227.78;6127284;23;20423;-27
2023/10/06 23:37:49;;;;;;;7.43;5.55;;;;;;;25.45;42.66;97224.56;6127621;23;20009;-27
2023/10/06 23:42:44;;;;;;;7.40;5.57;;;;;;;25.63;42.18;97230.34;6127696;23;20417;-27
2023/10/06 23:45:15;;;;;;;8.93;5.90;;;;;;;25.57;41.94;97231.59;6127694;23;20009;-27
2023/10/06 23:47:45;;;;;;;7.53;5.63;;;;;;;25.64;42.20;97225.56;6127644;23;20006;-27
2023/10/06 23:50:14;;;;;;;9.43;6.22;;;;;;;25.36;42.38;97223.53;6127795;23;20005;-27
2023/10/06 23:52:44;;;;;;;8.20;5.78;;;;;;;25.44;42.14;97225.81;6127951;23;20077;-27
2023/10/06 23:55:17;;;;;;;9.05;6.63;;;;;;;25.28;42.19;97228.09;6127568;23;20006;-27
2023/10/06 23:57:49;;;;;;;7.40;5.97;;;;;;;25.36;42.33;97217.97;6127512;23;20009;-27
